sensor_id;sensor_type;location;lat;lon;timestamp;pressure;altitude;pressure_sealevel;temperature;humidity
5283;BME280;15376;48.540;9.268;2022-11-21T00:01:53;96793.22;;;4.41;100.00
5283;BME280;15376;48.540;9.268;2022-11-21T00:04:19;96810.16;;;4.55;100.00
5283;BME280;15376;48.540;9.268;2022-11-21T00:06:44;96806.88;;;4.53;100.00
5283;BME280;15376;48.540;9.268;2022-11-21T00:09:09;96799.16;;;4.51;100.00
5283;BME280;15376;48.540;9.268;2022-11-21T00:11:35;96805.91;;;4.54;100.00
5283;BME280;15376;48.540;9.268;2022-11-21T00:14:00;96809.50;;;4.53;100.00
5283;BME280;15376;48.540;9.268;2022-11-21T00:16:25;96809.66;;;4.51;100.00
5283;BME280;15376;48.540;9.268;2022-11-21T00:18:51;96796.84;;;4.48;100.00
5283;BME280;15376;48.540;9.268;2022-11-21T00:21:17;96794.19;;;4.40;100.00
5283;BME280;15376;48.540;9.268;2022-11-21T00:23:44;96789.13;;;4.39;100.00
5283;BME280;15376;48.540;9.268;2022-11-21T00:26:11;96792.75;;;4.38;100.00
5283;BME280;15376;48.540;9.268;2022-11-21T00:28:37;96781.56;;;4.35;100.00
5283;BME280;15376;48.540;9.268;2022-11-21T00:31:03;96784.53;;;4.32;100.00
5283;BME280;15376;48.540;9.268;2022-11-21T00:33:28;96779.59;;;4.29;100.00
5283;BME280;15376;48.540;9.268;2022-11-21T00:35:54;96766.91;;;4.25;100.00
5283;BME280;15376;48.540;9.268;2022-11-21T00:38:19;96769.06;;;4.29;100.00
5283;BME280;15376;48.540;9.268;2022-11-21T00:40:44;96759.88;;;4.25;100.00
5283;BME280;15376;48.540;9.268;2022-11-21T00:43:10;96739.97;;;4.15;100.00
5283;BME280;15376;48.540;9.268;2022-11-21T00:45:35;96739.97;;;4.15;100.00
5283;BME280;15376;48.540;9.268;2022-11-21T00:48:01;96730.91;;;4.09;100.00
5283;BME280;15376;48.540;9.268;2022-11-21T00:50:26;96714.50;;;3.99;100.00
5283;BME280;15376;48.540;9.268;2022-11-21T00:52:55;96706.28;;;3.94;100.00
5283;BME280;15376;48.540;9.268;2022-11-21T00:55:22;96706.94;;;3.96;100.00
5283;BME280;15376;48.540;9.268;2022-11-21T00:57:47;96700.69;;;3.97;100.00
5283;BME280;15376;48.540;9.268;2022-11-21T01:00:13;96707.59;;;3.98;100.00
5283;BME280;15376;48.540;9.268;2022-11-21T01:02:38;96717.13;;;3.99;100.00
5283;BME280;15376;48.540;9.268;2022-11-21T01:05:04;96711.53;;;3.94;100.00
5283;BME280;15376;48.540;9.268;2022-11-21T01:07:29;96705.09;;;3.88;100.00
5283;BME280;15376;48.540;9.268;2022-11-21T01:09:55;96717.28;;;3.97;100.00
5283;BME280;15376;48.540;9.268;2022-11-21T01:12:20;96720.41;;;4.09;100.00
5283;BME280;15376;48.540;9.268;2022-11-21T01:14:46;96725.03;;;4.15;100.00
5283;BME280;15376;48.540;9.268;2022-11-21T01:17:11;96719.75;;;4.15;100.00
5283;BME280;15376;48.540;9.268;2022-11-21T01:19:36;96720.44;;;4.25;100.00
5283;BME280;15376;48.540;9.268;2022-11-21T01:22:02;96718.97;;;4.31;100.00
5283;BME280;15376;48.540;9.268;2022-11-21T01:24:27;96716.84;;;4.34;100.00
5283;BME280;15376;48.540;9.268;2022-11-21T01:26:52;96709.47;;;4.38;100.00
5283;BME280;15376;48.540;9.268;2022-11-21T01:29:19;96691.56;;;4.33;100.00
5283;BME280;15376;48.540;9.268;2022-11-21T01:31:44;96708.47;;;4.47;100.00
5283;BME280;15376;48.540;9.268;2022-11-21T01:34:10;96701.22;;;4.49;100.00
5283;BME280;15376;48.540;9.268;2022-11-21T01:36:35;96702.72;;;4.52;100.00
5283;BME280;15376;48.540;9.268;2022-11-21T01:39:03;96702.88;;;4.58;100.00
5283;BME280;15376;48.540;9.268;2022-11-21T01:41:32;96685.94;;;4.61;100.00
5283;BME280;15376;48.540;9.268;2022-11-21T01:43:59;96675.28;;;4.54;100.00
5283;BME280;15376;48.540;9.268;2022-11-21T01:46:25;96701.22;;;4.65;100.00
5283;BME280;15376;48.540;9.268;2022-11-21T01:49:07;96688.91;;;4.58;100.00
5283;BME280;15376;48.540;9.268;2022-11-21T01:59:16;96649.63;;;4.40;100.00
5283;BME280;15376;48.540;9.268;2022-11-21T02:01:45;96673.47;;;4.55;100.00
5283;BME280;15376;48.540;9.268;2022-11-21T02:04:10;96670.50;;;4.50;100.00
5283;BME280;15376;48.540;9.268;2022-11-21T02:06:35;96672.47;;;4.48;100.00
5283;BME280;15376;48.540;9.268;2022-11-21T02:09:01;96672.16;;;4.51;100.00
5283;BME280;15376;48.540;9.268;2022-11-21T02:11:35;96665.09;;;4.43;100.00
5283;BME280;15376;48.540;9.268;2022-11-21T02:14:02;96659.84;;;4.35;100.00
5283;BME280;15376;48.540;9.268;2022-11-21T02:16:28;96655.91;;;4.31;100.00
5283;BME280;15376;48.540;9.268;2022-11-21T02:18:53;96681.53;;;4.37;100.00
5283;BME280;15376;48.540;9.268;2022-11-21T02:21:41;96673.66;;;4.37;100.00
5283;BME280;15376;48.540;9.268;2022-11-21T02:24:16;96671.50;;;4.32;100.00
5283;BME280;15376;48.540;9.268;2022-11-21T02:26:45;96675.13;;;4.31;100.00
5283;BME280;15376;48.540;9.268;2022-11-21T02:29:13;96675.78;;;4.33;100.00
5283;BME280;15376;48.540;9.268;2022-11-21T02:31:38;96663.78;;;4.31;100.00
5283;BME280;15376;48.540;9.268;2022-11-21T02:34:03;96653.78;;;4.26;100.00
5283;BME280;15376;48.540;9.268;2022-11-21T02:36:36;96646.19;;;4.15;100.00
5283;BME280;15376;48.540;9.268;2022-11-21T02:39:06;96654.44;;;4.28;100.00
5283;BME280;15376;48.540;9.268;2022-11-21T02:41:33;96643.75;;;4.30;100.00
5283;BME280;15376;48.540;9.268;2022-11-21T02:44:09;96651.81;;;4.28;100.00
5283;BME280;15376;48.540;9.268;2022-11-21T02:46:35;96654.44;;;4.28;100.00
5283;BME280;15376;48.540;9.268;2022-11-21T02:49:10;96646.03;;;4.25;100.00
5283;BME280;15376;48.540;9.268;2022-11-21T02:51:35;96650.47;;;4.24;100.00
5283;BME280;15376;48.540;9.268;2022-11-21T02:54:00;96640.13;;;4.23;100.00
5283;BME280;15376;48.540;9.268;2022-11-21T02:56:26;96640.97;;;4.23;100.00
5283;BME280;15376;48.540;9.268;2022-11-21T02:58:51;96629.94;;;4.20;100.00
5283;BME280;15376;48.540;9.268;2022-11-21T03:01:16;96627.81;;;4.15;100.00
5283;BME280;15376;48.540;9.268;2022-11-21T03:03:42;96647.38;;;4.29;100.00
5283;BME280;15376;48.540;9.268;2022-11-21T03:06:07;96652.28;;;4.24;100.00
5283;BME280;15376;48.540;9.268;2022-11-21T03:08:32;96642.09;;;4.21;100.00
5283;BME280;15376;48.540;9.268;2022-11-21T03:10:57;96651.81;;;4.28;100.00
5283;BME280;15376;48.540;9.268;2022-11-21T03:13:23;96649.34;;;4.27;100.00
5283;BME280;15376;48.540;9.268;2022-11-21T03:15:48;96652.44;;;4.22;100.00
5283;BME280;15376;48.540;9.268;2022-11-21T03:18:13;96657.06;;;4.28;100.00
5283;BME280;15376;48.540;9.268;2022-11-21T03:20:39;96658.84;;;4.28;100.00
5283;BME280;15376;48.540;9.268;2022-11-21T03:23:04;96667.56;;;4.28;100.00
5283;BME280;15376;48.540;9.268;2022-11-21T03:25:29;96671.84;;;4.29;100.00
5283;BME280;15376;48.540;9.268;2022-11-21T03:27:55;96669.38;;;4.36;100.00
5283;BME280;15376;48.540;9.268;2022-11-21T03:30:22;96666.41;;;4.31;100.00
5283;BME280;15376;48.540;9.268;2022-11-21T03:32:48;96651.47;;;4.23;100.00
5283;BME280;15376;48.540;9.268;2022-11-21T03:35:13;96647.84;;;4.24;100.00
5283;BME280;15376;48.540;9.268;2022-11-21T03:37:39;96651.81;;;4.28;100.00
5283;BME280;15376;48.540;9.268;2022-11-21T03:40:05;96642.91;;;4.21;100.00
5283;BME280;15376;48.540;9.268;2022-11-21T03:42:31;96648.50;;;4.26;100.00
5283;BME280;15376;48.540;9.268;2022-11-21T03:44:56;96642.75;;;4.23;100.00
5283;BME280;15376;48.540;9.268;2022-11-21T03:47:22;96636.53;;;4.24;100.00
5283;BME280;15376;48.540;9.268;2022-11-21T03:49:48;96635.03;;;4.21;100.00
5283;BME280;15376;48.540;9.268;2022-11-21T03:52:14;96630.78;;;4.20;100.00
5283;BME280;15376;48.540;9.268;2022-11-21T03:54:39;96630.13;;;4.18;100.00
5283;BME280;15376;48.540;9.268;2022-11-21T03:57:04;96624.03;;;4.18;100.00
5283;BME280;15376;48.540;9.268;2022-11-21T03:59:30;96629.28;;;4.18;100.00
5283;BME280;15376;48.540;9.268;2022-11-21T04:01:55;96635.38;;;4.18;100.00
5283;BME280;15376;48.540;9.268;2022-11-21T04:04:20;96634.72;;;4.24;100.00
5283;BME280;15376;48.540;9.268;2022-11-21T04:06:46;96631.44;;;4.22;100.00
5283;BME280;15376;48.540;9.268;2022-11-21T04:09:12;96618.94;;;4.16;100.00
5283;BME280;15376;48.540;9.268;2022-11-21T04:11:37;96608.94;;;4.12;100.00
5283;BME280;15376;48.540;9.268;2022-11-21T04:14:03;96624.19;;;4.16;100.00
5283;BME280;15376;48.540;9.268;2022-11-21T04:16:28;96613.69;;;4.08;100.00
5283;BME280;15376;48.540;9.268;2022-11-21T04:18:53;96615.66;;;4.06;100.00
5283;BME280;15376;48.540;9.268;2022-11-21T04:21:19;96623.53;;;4.14;100.00
5283;BME280;15376;48.540;9.268;2022-11-21T04:23:44;96619.75;;;4.09;100.00
5283;BME280;15376;48.540;9.268;2022-11-21T04:26:10;96625.66;;;4.11;100.00
5283;BME280;15376;48.540;9.268;2022-11-21T04:28:35;96625.00;;;4.09;100.00
5283;BME280;15376;48.540;9.268;2022-11-21T04:31:05;96617.94;;;4.09;100.00
5283;BME280;15376;48.540;9.268;2022-11-21T04:33:31;96621.56;;;4.08;100.00
5283;BME280;15376;48.540;9.268;2022-11-21T04:35:57;96618.44;;;4.05;100.00
5283;BME280;15376;48.540;9.268;2022-11-21T04:38:23;96622.06;;;4.03;100.00
5283;BME280;15376;48.540;9.268;2022-11-21T04:40:48;96613.38;;;3.95;100.00
5283;BME280;15376;48.540;9.268;2022-11-21T04:43:13;96623.84;;;4.03;100.00
5283;BME280;15376;48.540;9.268;2022-11-21T04:45:39;96629.78;;;4.05;100.00
5283;BME280;15376;48.540;9.268;2022-11-21T04:48:04;96627.47;;;4.02;100.00
5283;BME280;15376;48.540;9.268;2022-11-21T04:50:29;96636.53;;;3.99;100.00
5283;BME280;15376;48.540;9.268;2022-11-21T04:52:56;96635.03;;;3.97;100.00
5283;BME280;15376;48.540;9.268;2022-11-21T04:55:27;96639.94;;;4.00;100.00
5283;BME280;15376;48.540;9.268;2022-11-21T04:57:53;96633.25;;;3.97;100.00
5283;BME280;15376;48.540;9.268;2022-11-21T05:00:19;96638.50;;;3.97;100.00
5283;BME280;15376;48.540;9.268;2022-11-21T05:02:45;96632.41;;;3.97;100.00
5283;BME280;15376;48.540;9.268;2022-11-21T05:05:11;96624.88;;;3.94;100.00
5283;BME280;15376;48.540;9.268;2022-11-21T05:07:37;96630.13;;;3.94;100.00
5283;BME280;15376;48.540;9.268;2022-11-21T05:10:06;96629.44;;;3.92;100.00
5283;BME280;15376;48.540;9.268;2022-11-21T05:12:32;96635.34;;;3.86;100.00
5283;BME280;15376;48.540;9.268;2022-11-21T05:15:16;96636.97;;;3.79;100.00
5283;BME280;15376;48.540;9.268;2022-11-21T05:17:42;96619.53;;;3.61;100.00
5283;BME280;15376;48.540;9.268;2022-11-21T05:20:08;96639.22;;;3.65;100.00
5283;BME280;15376;48.540;9.268;2022-11-21T05:22:33;96619.34;;;3.47;100.00
5283;BME280;15376;48.540;9.268;2022-11-21T05:24:59;96631.69;;;3.54;100.00
5283;BME280;15376;48.540;9.268;2022-11-21T05:27:24;96643.16;;;3.61;100.00
5283;BME280;15376;48.540;9.268;2022-11-21T05:29:49;96640.22;;;3.56;100.00
5283;BME280;15376;48.540;9.268;2022-11-21T05:32:15;96632.47;;;3.47;100.00
5283;BME280;15376;48.540;9.268;2022-11-21T05:34:40;96639.19;;;3.41;100.00
5283;BME280;15376;48.540;9.268;2022-11-21T05:37:05;96637.53;;;3.40;100.00
5283;BME280;15376;48.540;9.268;2022-11-21T05:39:31;96648.75;;;3.58;100.00
5283;BME280;15376;48.540;9.268;2022-11-21T05:41:56;96627.72;;;3.50;100.00
5283;BME280;15376;48.540;9.268;2022-11-21T05:44:21;96655.31;;;3.71;100.00
5283;BME280;15376;48.540;9.268;2022-11-21T05:46:47;96649.75;;;3.65;100.00
5283;BME280;15376;48.540;9.268;2022-11-21T05:49:12;96635.44;;;3.60;100.00
5283;BME280;15376;48.540;9.268;2022-11-21T05:51:37;96657.81;;;3.80;100.00
5283;BME280;15376;48.540;9.268;2022-11-21T05:54:03;96653.06;;;3.84;100.00
5283;BME280;15376;48.540;9.268;2022-11-21T05:56:29;96654.88;;;3.83;100.00
5283;BME280;15376;48.540;9.268;2022-11-21T05:58:56;96656.03;;;3.81;100.00
5283;BME280;15376;48.540;9.268;2022-11-21T06:01:21;96658.97;;;3.78;100.00
5283;BME280;15376;48.540;9.268;2022-11-21T06:04:06;96662.88;;;3.74;100.00
5283;BME280;15376;48.540;9.268;2022-11-21T06:06:32;96639.22;;;3.65;100.00
5283;BME280;15376;48.540;9.268;2022-11-21T06:08:58;96655.34;;;3.79;100.00
5283;BME280;15376;48.540;9.268;2022-11-21T06:11:23;96651.25;;;3.76;100.00
5283;BME280;15376;48.540;9.268;2022-11-21T06:13:48;96653.72;;;3.78;100.00
5283;BME280;15376;48.540;9.268;2022-11-21T06:16:15;96659.28;;;3.75;100.00
5283;BME280;15376;48.540;9.268;2022-11-21T06:18:43;96653.53;;;3.71;100.00
5283;BME280;15376;48.540;9.268;2022-11-21T06:21:16;96649.91;;;3.72;100.00
5283;BME280;15376;48.540;9.268;2022-11-21T06:23:43;96642.53;;;3.67;100.00
5283;BME280;15376;48.540;9.268;2022-11-21T06:26:12;96647.78;;;3.67;100.00
5283;BME280;15376;48.540;9.268;2022-11-21T06:28:39;96644.47;;;3.65;100.00
5283;BME280;15376;48.540;9.268;2022-11-21T06:31:07;96644.66;;;3.72;100.00
5283;BME280;15376;48.540;9.268;2022-11-21T06:33:34;96652.25;;;3.83;100.00
5283;BME280;15376;48.540;9.268;2022-11-21T06:36:07;96641.91;;;3.82;100.00
5283;BME280;15376;48.540;9.268;2022-11-21T06:38:34;96627.91;;;3.65;100.00
5283;BME280;15376;48.540;9.268;2022-11-21T06:41:13;96646.16;;;3.75;100.00
5283;BME280;15376;48.540;9.268;2022-11-21T06:43:39;96656.50;;;3.76;100.00
5283;BME280;15376;48.540;9.268;2022-11-21T06:46:05;96648.47;;;3.78;100.00
5283;BME280;15376;48.540;9.268;2022-11-21T06:48:31;96654.38;;;3.80;100.00
5283;BME280;15376;48.540;9.268;2022-11-21T06:50:57;96658.31;;;3.84;100.00
5283;BME280;15376;48.540;9.268;2022-11-21T06:53:23;96652.41;;;3.82;100.00
5283;BME280;15376;48.540;9.268;2022-11-21T06:55:48;96638.47;;;3.81;100.00
5283;BME280;15376;48.540;9.268;2022-11-21T06:58:14;96661.63;;;3.94;100.00
5283;BME280;15376;48.540;9.268;2022-11-21T07:00:39;96661.63;;;3.94;100.00
5283;BME280;15376;48.540;9.268;2022-11-21T07:03:04;96647.00;;;3.83;100.00
5283;BME280;15376;48.540;9.268;2022-11-21T07:05:30;96659.00;;;3.94;100.00
5283;BME280;15376;48.540;9.268;2022-11-21T07:07:59;96652.44;;;3.90;100.00
5283;BME280;15376;48.540;9.268;2022-11-21T07:10:25;96662.63;;;3.93;100.00
5283;BME280;15376;48.540;9.268;2022-11-21T07:12:50;96657.50;;;3.83;100.00
5283;BME280;15376;48.540;9.268;2022-11-21T07:15:34;96661.59;;;3.86;100.00
5283;BME280;15376;48.540;9.268;2022-11-21T07:18:00;96644.84;;;3.79;100.00
5283;BME280;15376;48.540;9.268;2022-11-21T07:20:25;96630.06;;;3.69;100.00
5283;BME280;15376;48.540;9.268;2022-11-21T07:22:54;96657.19;;;3.86;100.00
5283;BME280;15376;48.540;9.268;2022-11-21T07:25:20;96646.50;;;3.80;100.00
5283;BME280;15376;48.540;9.268;2022-11-21T07:27:45;96643.38;;;3.84;100.00
5283;BME280;15376;48.540;9.268;2022-11-21T07:30:11;96654.41;;;3.88;100.00
5283;BME280;15376;48.540;9.268;2022-11-21T07:32:36;96650.13;;;3.87;100.00
5283;BME280;15376;48.540;9.268;2022-11-21T07:35:02;96644.06;;;3.94;100.00
5283;BME280;15376;48.540;9.268;2022-11-21T07:37:27;96642.56;;;4.00;100.00
5283;BME280;15376;48.540;9.268;2022-11-21T07:39:52;96621.56;;;3.92;100.00
5283;BME280;15376;48.540;9.268;2022-11-21T07:42:18;96629.44;;;4.08;100.00
5283;BME280;15376;48.540;9.268;2022-11-21T07:44:43;96635.03;;;4.21;100.00
5283;BME280;15376;48.540;9.268;2022-11-21T07:47:08;96625.34;;;4.22;100.00
5283;BME280;15376;48.540;9.268;2022-11-21T07:49:34;96637.03;;;4.35;100.00
5283;BME280;15376;48.540;9.268;2022-11-21T07:51:59;96627.16;;;4.29;100.00
5283;BME280;15376;48.540;9.268;2022-11-21T07:54:24;96638.47;;;4.46;100.00
5283;BME280;15376;48.540;9.268;2022-11-21T07:56:50;96631.72;;;4.52;100.00
5283;BME280;15376;48.540;9.268;2022-11-21T07:59:15;96641.09;;;4.54;100.00
5283;BME280;15376;48.540;9.268;2022-11-21T08:01:43;96617.09;;;4.49;100.00
5283;BME280;15376;48.540;9.268;2022-11-21T08:04:08;96621.88;;;4.62;100.00
5283;BME280;15376;48.540;9.268;2022-11-21T08:06:33;96600.50;;;4.57;100.00
5283;BME280;15376;48.540;9.268;2022-11-21T08:08:59;96631.00;;;4.90;100.00
5283;BME280;15376;48.540;9.268;2022-11-21T08:11:24;96642.75;;;5.19;100.00
5283;BME280;15376;48.540;9.268;2022-11-21T08:13:50;96649.13;;;5.24;100.00
5283;BME280;15376;48.540;9.268;2022-11-21T08:16:15;96648.31;;;5.24;100.00
5283;BME280;15376;48.540;9.268;2022-11-21T08:18:40;96638.66;;;5.16;100.00
5283;BME280;15376;48.540;9.268;2022-11-21T08:21:06;96635.06;;;5.09;100.00
5283;BME280;15376;48.540;9.268;2022-11-21T08:23:31;96620.25;;;5.08;100.00
5283;BME280;15376;48.540;9.268;2022-11-21T08:25:57;96624.38;;;5.11;100.00
5283;BME280;15376;48.540;9.268;2022-11-21T08:28:22;96614.00;;;5.09;100.00
5283;BME280;15376;48.540;9.268;2022-11-21T08:30:47;96606.63;;;5.05;100.00
5283;BME280;15376;48.540;9.268;2022-11-21T08:33:13;96608.41;;;5.12;100.00
5283;BME280;15376;48.540;9.268;2022-11-21T08:35:38;96623.34;;;5.20;100.00
5283;BME280;15376;48.540;9.268;2022-11-21T08:38:04;96626.91;;;5.27;100.00
5283;BME280;15376;48.540;9.268;2022-11-21T08:40:30;96602.75;;;5.23;100.00
5283;BME280;15376;48.540;9.268;2022-11-21T08:43:04;96621.59;;;5.43;100.00
5283;BME280;15376;48.540;9.268;2022-11-21T08:45:30;96613.06;;;5.64;100.00
5283;BME280;15376;48.540;9.268;2022-11-21T08:47:56;96615.72;;;5.95;100.00
5283;BME280;15376;48.540;9.268;2022-11-21T08:50:21;96615.47;;;6.05;100.00
5283;BME280;15376;48.540;9.268;2022-11-21T08:52:47;96606.22;;;6.09;100.00
5283;BME280;15376;48.540;9.268;2022-11-21T08:55:13;96603.59;;;7.49;100.00
5283;BME280;15376;48.540;9.268;2022-11-21T08:57:39;96592.41;;;8.75;100.00
5283;BME280;15376;48.540;9.268;2022-11-21T09:00:04;96601.72;;;10.14;100.00
5283;BME280;15376;48.540;9.268;2022-11-21T09:02:30;96608.53;;;10.30;100.00
5283;BME280;15376;48.540;9.268;2022-11-21T09:04:56;96599.53;;;10.64;100.00
5283;BME280;15376;48.540;9.268;2022-11-21T09:07:21;96593.16;;;10.91;93.63
5283;BME280;15376;48.540;9.268;2022-11-21T09:09:46;96601.84;;;11.96;90.65
5283;BME280;15376;48.540;9.268;2022-11-21T09:12:12;96575.13;;;11.71;88.14
5283;BME280;15376;48.540;9.268;2022-11-21T09:14:37;96590.75;;;11.54;88.08
5283;BME280;15376;48.540;9.268;2022-11-21T09:17:21;96582.47;;;11.76;87.32
5283;BME280;15376;48.540;9.268;2022-11-21T09:20:05;96583.38;;;11.56;88.06
5283;BME280;15376;48.540;9.268;2022-11-21T09:22:30;96577.81;;;11.13;89.70
5283;BME280;15376;48.540;9.268;2022-11-21T09:24:55;96571.75;;;10.73;90.66
5283;BME280;15376;48.540;9.268;2022-11-21T09:27:21;96574.25;;;11.90;85.19
5283;BME280;15376;48.540;9.268;2022-11-21T09:29:46;96576.41;;;10.05;87.01
5283;BME280;15376;48.540;9.268;2022-11-21T09:32:12;96570.94;;;10.79;86.39
5283;BME280;15376;48.540;9.268;2022-11-21T09:34:37;96578.56;;;11.27;84.46
5283;BME280;15376;48.540;9.268;2022-11-21T09:37:02;96577.97;;;11.83;84.99
5283;BME280;15376;48.540;9.268;2022-11-21T09:39:28;96585.38;;;11.10;84.46
5283;BME280;15376;48.540;9.268;2022-11-21T09:44:57;96597.91;;;9.62;91.98
5283;BME280;15376;48.540;9.268;2022-11-21T09:47:34;96590.13;;;8.72;94.36
5283;BME280;15376;48.540;9.268;2022-11-21T09:50:12;96586.16;;;8.12;97.44
5283;BME280;15376;48.540;9.268;2022-11-21T09:55:25;96572.00;;;7.77;100.00
5283;BME280;15376;48.540;9.268;2022-11-21T09:57:52;96565.38;;;7.66;100.00
5283;BME280;15376;48.540;9.268;2022-11-21T10:00:22;96569.91;;;7.36;100.00
5283;BME280;15376;48.540;9.268;2022-11-21T10:02:50;96571.56;;;7.23;100.00
5283;BME280;15376;48.540;9.268;2022-11-21T10:05:16;96547.81;;;7.23;100.00
5283;BME280;15376;48.540;9.268;2022-11-21T10:07:43;96544.16;;;7.24;100.00
5283;BME280;15376;48.540;9.268;2022-11-21T10:10:24;96542.81;;;7.28;100.00
5283;BME280;15376;48.540;9.268;2022-11-21T10:15:36;96527.47;;;7.38;100.00
5283;BME280;15376;48.540;9.268;2022-11-21T10:20:53;96511.97;;;7.50;100.00
5283;BME280;15376;48.540;9.268;2022-11-21T10:28:43;96493.34;;;7.36;100.00
5283;BME280;15376;48.540;9.268;2022-11-21T10:31:12;96486.13;;;7.45;100.00
5283;BME280;15376;48.540;9.268;2022-11-21T10:33:38;96484.75;;;7.49;100.00
5283;BME280;15376;48.540;9.268;2022-11-21T10:36:29;96487.75;;;7.46;100.00
5283;BME280;15376;48.540;9.268;2022-11-21T10:39:00;96484.84;;;7.41;100.00
5283;BME280;15376;48.540;9.268;2022-11-21T10:42:14;96481.41;;;7.41;100.00
5283;BME280;15376;48.540;9.268;2022-11-21T10:44:41;96472.09;;;7.45;100.00
5283;BME280;15376;48.540;9.268;2022-11-21T10:47:31;96465.19;;;7.44;100.00
5283;BME280;15376;48.540;9.268;2022-11-21T10:56:11;96446.22;;;7.61;100.00
5283;BME280;15376;48.540;9.268;2022-11-21T11:01:37;96463.19;;;7.95;100.00
5283;BME280;15376;48.540;9.268;2022-11-21T11:06:34;96454.63;;;7.93;100.00
5283;BME280;15376;48.540;9.268;2022-11-21T11:09:00;96441.81;;;7.90;100.00
5283;BME280;15376;48.540;9.268;2022-11-21T11:11:25;96431.47;;;7.95;97.89
5283;BME280;15376;48.540;9.268;2022-11-21T11:13:56;96433.50;;;7.93;98.79
5283;BME280;15376;48.540;9.268;2022-11-21T11:16:23;96425.63;;;7.99;100.00
5283;BME280;15376;48.540;9.268;2022-11-21T11:19:27;96417.22;;;8.24;98.83
5283;BME280;15376;48.540;9.268;2022-11-21T11:21:53;96415.97;;;8.54;97.26
5283;BME280;15376;48.540;9.268;2022-11-21T11:24:23;96410.41;;;8.77;99.26
5283;BME280;15376;48.540;9.268;2022-11-21T11:26:55;96399.84;;;8.97;95.95
5283;BME280;15376;48.540;9.268;2022-11-21T11:29:31;96392.16;;;9.22;94.20
5283;BME280;15376;48.540;9.268;2022-11-21T11:32:14;96403.38;;;9.24;93.32
5283;BME280;15376;48.540;9.268;2022-11-21T11:34:57;96395.22;;;9.12;94.31
5283;BME280;15376;48.540;9.268;2022-11-21T11:37:37;96401.31;;;8.52;92.80
5283;BME280;15376;48.540;9.268;2022-11-21T11:40:27;96384.50;;;8.31;94.77
5283;BME280;15376;48.540;9.268;2022-11-21T11:46:30;96387.69;;;8.55;95.32
5283;BME280;15376;48.540;9.268;2022-11-21T11:49:34;96360.91;;;8.30;96.22
5283;BME280;15376;48.540;9.268;2022-11-21T11:52:25;96379.00;;;8.26;97.98
5283;BME280;15376;48.540;9.268;2022-11-21T11:54:58;96361.22;;;8.14;100.00
5283;BME280;15376;48.540;9.268;2022-11-21T11:57:29;96367.78;;;7.90;98.53
5283;BME280;15376;48.540;9.268;2022-11-21T12:00:06;96364.03;;;7.78;100.00
5283;BME280;15376;48.540;9.268;2022-11-21T12:06:11;96351.69;;;7.85;100.00
5283;BME280;15376;48.540;9.268;2022-11-21T12:08:53;96335.84;;;7.85;100.00
5283;BME280;15376;48.540;9.268;2022-11-21T12:17:53;96323.88;;;8.30;99.33
5283;BME280;15376;48.540;9.268;2022-11-21T12:20:23;96325.19;;;8.47;98.33
5283;BME280;15376;48.540;9.268;2022-11-21T12:22:51;96309.78;;;8.64;91.65
5283;BME280;15376;48.540;9.268;2022-11-21T12:25:22;96313.03;;;8.66;90.74
5283;BME280;15376;48.540;9.268;2022-11-21T12:27:52;96310.97;;;8.55;89.78
5283;BME280;15376;48.540;9.268;2022-11-21T12:30:32;96291.03;;;8.59;88.43
5283;BME280;15376;48.540;9.268;2022-11-21T12:33:22;96286.75;;;8.58;89.46
5283;BME280;15376;48.540;9.268;2022-11-21T12:36:08;96273.97;;;8.68;89.87
5283;BME280;15376;48.540;9.268;2022-11-21T12:41:47;96251.97;;;8.67;88.88
5283;BME280;15376;48.540;9.268;2022-11-21T12:44:59;96260.53;;;8.89;88.57
5283;BME280;15376;48.540;9.268;2022-11-21T12:47:54;96247.53;;;9.08;87.92
5283;BME280;15376;48.540;9.268;2022-11-21T12:57:10;96221.84;;;8.75;87.48
5283;BME280;15376;48.540;9.268;2022-11-21T13:03:01;96202.69;;;8.53;89.71
5283;BME280;15376;48.540;9.268;2022-11-21T13:05:36;96203.50;;;8.54;90.50
5283;BME280;15376;48.540;9.268;2022-11-21T13:08:17;96211.25;;;8.55;89.77
5283;BME280;15376;48.540;9.268;2022-11-21T13:10:51;96203.88;;;8.44;88.38
5283;BME280;15376;48.540;9.268;2022-11-21T13:13:41;96207.16;;;8.40;90.03
5283;BME280;15376;48.540;9.268;2022-11-21T13:16:18;96187.16;;;8.30;90.18
5283;BME280;15376;48.540;9.268;2022-11-21T13:19:03;96175.34;;;8.26;90.07
5283;BME280;15376;48.540;9.268;2022-11-21T13:21:46;96169.63;;;8.16;93.62
5283;BME280;15376;48.540;9.268;2022-11-21T13:27:30;96166.78;;;8.18;93.39
5283;BME280;15376;48.540;9.268;2022-11-21T13:32:53;96164.44;;;8.36;92.65
5283;BME280;15376;48.540;9.268;2022-11-21T13:45:50;96148.63;;;8.01;95.27
5283;BME280;15376;48.540;9.268;2022-11-21T13:54:07;96132.75;;;7.82;91.27
5283;BME280;15376;48.540;9.268;2022-11-21T13:57:11;96137.78;;;7.70;98.02
5283;BME280;15376;48.540;9.268;2022-11-21T14:05:22;96117.09;;;7.80;93.69
5283;BME280;15376;48.540;9.268;2022-11-21T14:08:31;96116.28;;;7.80;93.85
5283;BME280;15376;48.540;9.268;2022-11-21T14:10:56;96124.41;;;7.85;98.41
5283;BME280;15376;48.540;9.268;2022-11-21T14:13:28;96120.75;;;7.79;100.00
5283;BME280;15376;48.540;9.268;2022-11-21T14:16:20;96107.28;;;7.67;100.00
5283;BME280;15376;48.540;9.268;2022-11-21T14:18:48;96113.75;;;7.52;100.00
5283;BME280;15376;48.540;9.268;2022-11-21T14:21:22;96102.94;;;7.40;100.00
5283;BME280;15376;48.540;9.268;2022-11-21T14:23:55;96100.44;;;7.32;100.00
5283;BME280;15376;48.540;9.268;2022-11-21T14:26:22;96098.41;;;7.27;100.00
5283;BME280;15376;48.540;9.268;2022-11-21T14:28:50;96093.69;;;7.23;100.00
5283;BME280;15376;48.540;9.268;2022-11-21T14:31:16;96093.50;;;7.18;100.00
5283;BME280;15376;48.540;9.268;2022-11-21T14:36:19;96093.66;;;7.10;100.00
5283;BME280;15376;48.540;9.268;2022-11-21T14:38:47;96072.31;;;7.05;100.00
5283;BME280;15376;48.540;9.268;2022-11-21T14:46:35;96066.56;;;6.94;100.00
5283;BME280;15376;48.540;9.268;2022-11-21T14:51:45;96042.28;;;7.06;100.00
5283;BME280;15376;48.540;9.268;2022-11-21T14:54:14;96048.53;;;6.98;100.00
5283;BME280;15376;48.540;9.268;2022-11-21T14:56:40;96038.72;;;6.85;100.00
5283;BME280;15376;48.540;9.268;2022-11-21T14:59:19;96034.69;;;6.89;100.00
5283;BME280;15376;48.540;9.268;2022-11-21T15:01:58;96020.81;;;6.81;100.00
5283;BME280;15376;48.540;9.268;2022-11-21T15:04:32;96015.94;;;6.71;100.00